Have a Safe July 4th! 

Flight Track Log - Related Links

Times and Time Zones

All times are in EDT time to prevent confusion due to time zone crossing. See the N948CE flight status page for this flight to view local times or setup timezone preferences in your user account.

Time Position Orientation Groundspeed Altitude Reporting Facility
EDT Latitude Longitude Course Direction KTS MPH feet Rate Location/Type
Wed 12:02:21 PM 41.5253 -81.6703 346° North 154 177 1,200  Level Cleveland Center
Wed 12:03:34 PM 41.5689 -81.6850 311° West 154 177 2,000 361 Climbing Cleveland Center
Wed 12:04:34 PM 41.5997 -81.7328 299° West 167 192 2,000 397 Level Cleveland Center
Wed 12:05:35 PM 41.6203 -81.7831 286° West 164 189 2,800 516 Climbing Cleveland Center
Wed 12:06:42 PM 41.6381 -81.8639 290° West 207 238 3,100 94 Climbing Cleveland Center
Wed 12:07:42 PM 41.6581 -81.9394 290° West 208 239 3,000 545 Descending Cleveland Center
Wed 12:08:43 PM 41.6758 -82.0064 290° West 193 222 4,200 1,438 Climbing Cleveland Center
Wed 12:09:43 PM 41.6919 -82.0653 290° West 176 203 5,900 893 Climbing Cleveland Center
Wed 12:10:44 PM 41.7097 -82.1325 288° West 207 238 6,000 787 Climbing Cleveland Center
Wed 12:11:45 PM 41.7275 -82.2053 293° West 203 234 7,500 984 Climbing Cleveland Center
Wed 12:12:46 PM 41.7494 -82.2753 295° West 202 232 8,000 248 Climbing Cleveland Center
Wed 12:13:46 PM 41.7775 -82.3567 286° West 236 272 8,000  Level Cleveland Center
Wed 12:15:00 PM 41.8008 -82.4633 288° West 249 287 8,000  Level Cleveland Center
Wed 12:16:07 PM 41.8261 -82.5672 302° West 249 287 8,000  Level Cleveland Center
Wed 12:17:08 PM 41.8603 -82.6408 328° Northwest 232 267 8,000  Level Cleveland Center
Wed 12:18:08 PM 41.9114 -82.6842 329° Northwest 221 254 8,000  Level Cleveland Center
Wed 12:19:09 PM 41.9650 -82.7278 326° Northwest 222 255 8,000 -49 Level Cleveland Center
Wed 12:20:10 PM 42.0203 -82.7772 331° Northwest 224 258 7,900 -488 Descending Cleveland Center
Wed 12:21:12 PM 42.0717 -82.8153 326° Northwest 215 247 7,000 -829 Descending Cleveland Center
Wed 12:22:13 PM 42.1208 -82.8592 329° Northwest 208 239 6,200 -891 Descending Cleveland Center
Wed 12:23:20 PM 42.1742 -82.9031 328° Northwest 201 231 5,100 -836 Descending Cleveland Center
Wed 12:24:15 PM 42.2150 -82.9381 328° Northwest 197 227 4,500 -541 Descending Cleveland Center
Wed 12:25:22 PM 42.2664 -82.9822 331° Northwest 192 221 4,000 -234 Descending Cleveland Center
Wed 12:26:23 PM 42.3136 -83.0178 329° Northwest 189 217 4,000  Level Cleveland Center
Wed 12:27:18 PM 42.3567 -83.0531 325° Northwest 192 221 4,000 -207 Level Cleveland Center
Wed 12:28:19 PM 42.4036 -83.0969 327° Northwest 203 234 3,600 -446 Descending Cleveland Center
Wed 12:29:19 PM 42.4508 -83.1378 328° Northwest 205 236 3,100 -360 Descending FAA TRACON SMA TRACON (SMA)
Wed 12:29:59 PM 42.4828 -83.1647 328° Northwest 201 231 3,000 -75 Descending FAA TRACON SMA TRACON (SMA)
Wed 12:30:39 PM 42.5144 -83.1911 328° Northwest 195 224 3,000  Level FAA TRACON SMA TRACON (SMA)
Wed 12:31:20 PM 42.5450 -83.2169 327° Northwest 194 223 3,000  Level FAA TRACON SMA TRACON (SMA)
Wed 12:32:00 PM 42.5736 -83.2425 321° Northwest 197 227 3,000  Level FAA TRACON SMA TRACON (SMA)
Wed 12:32:39 PM 42.5994 -83.2711 312° West 195 224 3,000 -304 Level FAA TRACON SMA TRACON (SMA)
Wed 12:33:19 PM 42.6264 -83.3114 308° West 184 212 2,600 -600 Descending FAA TRACON SMA TRACON (SMA)
Wed 12:33:59 PM 42.6442 -83.3425 293° West 154 177 2,200 -667 Descending FAA TRACON SMA TRACON (SMA)
Wed 12:34:31 PM 42.6517 -83.3667 312° West 126 145 1,800 -519 Descending Cleveland Center
Wed 12:35:20 PM 42.6636 -83.3850 312° West 123 142 1,500 -367 Descending FAA TRACON SMA TRACON (SMA)

Login

Don't have an account? Register now (free) for customized features, flight alerts, and more!